sensor_id;sensor_type;location;lat;lon;timestamp;pressure;altitude;pressure_sealevel;temperature;humidity
7157;BME280;3620;49.862;8.758;2022-07-30T00:00:59;99292.28;;;21.17;86.35
7157;BME280;3620;49.862;8.758;2022-07-30T00:03:25;99288.09;;;21.24;85.49
7157;BME280;3620;49.862;8.758;2022-07-30T00:05:54;99286.13;;;21.26;85.48
7157;BME280;3620;49.862;8.758;2022-07-30T00:08:21;99295.03;;;21.36;84.57
7157;BME280;3620;49.862;8.758;2022-07-30T00:10:48;99285.31;;;21.45;84.30
7157;BME280;3620;49.862;8.758;2022-07-30T00:13:15;99287.59;;;21.49;84.05
7157;BME280;3620;49.862;8.758;2022-07-30T00:15:42;99288.47;;;21.59;83.41
7157;BME280;3620;49.862;8.758;2022-07-30T00:18:09;99291.84;;;21.52;83.56
7157;BME280;3620;49.862;8.758;2022-07-30T00:20:37;99289.00;;;21.53;83.83
7157;BME280;3620;49.862;8.758;2022-07-30T00:23:06;99284.75;;;21.41;84.52
7157;BME280;3620;49.862;8.758;2022-07-30T00:25:32;99286.19;;;21.45;84.65
7157;BME280;3620;49.862;8.758;2022-07-30T00:27:59;99279.97;;;21.35;85.42
7157;BME280;3620;49.862;8.758;2022-07-30T00:30:26;99288.41;;;21.40;85.64
7157;BME280;3620;49.862;8.758;2022-07-30T00:32:52;99286.84;;;21.28;87.28
7157;BME280;3620;49.862;8.758;2022-07-30T00:35:19;99281.34;;;21.30;87.22
7157;BME280;3620;49.862;8.758;2022-07-30T00:37:48;99276.78;;;21.21;87.97
7157;BME280;3620;49.862;8.758;2022-07-30T00:40:16;99270.88;;;21.17;88.81
7157;BME280;3620;49.862;8.758;2022-07-30T00:42:45;99284.34;;;21.06;89.57
7157;BME280;3620;49.862;8.758;2022-07-30T00:45:14;99279.53;;;21.00;90.22
7157;BME280;3620;49.862;8.758;2022-07-30T00:47:42;99278.59;;;20.90;91.56
7157;BME280;3620;49.862;8.758;2022-07-30T00:50:10;99281.03;;;20.93;91.51
7157;BME280;3620;49.862;8.758;2022-07-30T00:52:37;99289.06;;;20.93;91.37
7157;BME280;3620;49.862;8.758;2022-07-30T00:55:06;99276.50;;;20.93;91.20
7157;BME280;3620;49.862;8.758;2022-07-30T00:57:34;99274.69;;;20.94;91.77
7157;BME280;3620;49.862;8.758;2022-07-30T01:00:03;99274.50;;;20.86;92.55
7157;BME280;3620;49.862;8.758;2022-07-30T01:02:31;99271.03;;;20.95;92.15
7157;BME280;3620;49.862;8.758;2022-07-30T01:04:58;99265.22;;;20.90;92.02
7157;BME280;3620;49.862;8.758;2022-07-30T01:07:25;99264.78;;;20.85;92.39
7157;BME280;3620;49.862;8.758;2022-07-30T01:09:52;99262.50;;;20.80;92.59
7157;BME280;3620;49.862;8.758;2022-07-30T01:12:19;99256.91;;;20.83;92.71
7157;BME280;3620;49.862;8.758;2022-07-30T01:14:50;99257.75;;;20.84;92.15
7157;BME280;3620;49.862;8.758;2022-07-30T01:17:17;99256.66;;;20.86;92.00
7157;BME280;3620;49.862;8.758;2022-07-30T01:19:45;99253.16;;;20.95;91.24
7157;BME280;3620;49.862;8.758;2022-07-30T01:22:22;99251.59;;;20.93;91.03
7157;BME280;3620;49.862;8.758;2022-07-30T01:24:54;99253.81;;;20.88;91.09
7157;BME280;3620;49.862;8.758;2022-07-30T01:27:24;99253.81;;;20.88;91.40
7157;BME280;3620;49.862;8.758;2022-07-30T01:29:53;99250.69;;;20.83;91.71
7157;BME280;3620;49.862;8.758;2022-07-30T01:32:22;99248.47;;;20.88;90.84
7157;BME280;3620;49.862;8.758;2022-07-30T01:34:50;99249.44;;;20.87;90.68
7157;BME280;3620;49.862;8.758;2022-07-30T01:37:20;99252.00;;;20.88;90.04
7157;BME280;3620;49.862;8.758;2022-07-30T01:39:48;99253.44;;;20.92;89.74
7157;BME280;3620;49.862;8.758;2022-07-30T01:42:17;99248.63;;;20.86;89.71
7157;BME280;3620;49.862;8.758;2022-07-30T01:44:47;99251.00;;;20.89;89.64
7157;BME280;3620;49.862;8.758;2022-07-30T01:47:15;99251.88;;;20.90;88.97
7157;BME280;3620;49.862;8.758;2022-07-30T01:49:44;99255.25;;;20.92;88.88
7157;BME280;3620;49.862;8.758;2022-07-30T01:52:13;99258.94;;;21.00;87.86
7157;BME280;3620;49.862;8.758;2022-07-30T01:54:43;99267.28;;;20.77;88.81
7157;BME280;3620;49.862;8.758;2022-07-30T01:57:12;99276.28;;;20.76;88.97
7157;BME280;3620;49.862;8.758;2022-07-30T01:59:40;99271.28;;;20.62;89.65
7157;BME280;3620;49.862;8.758;2022-07-30T02:02:10;99279.16;;;20.42;90.98
7157;BME280;3620;49.862;8.758;2022-07-30T02:04:37;99280.63;;;20.47;91.49
7157;BME280;3620;49.862;8.758;2022-07-30T02:07:09;99272.47;;;20.48;91.05
7157;BME280;3620;49.862;8.758;2022-07-30T02:09:43;99280.63;;;20.47;90.65
7157;BME280;3620;49.862;8.758;2022-07-30T02:12:13;99287.63;;;20.48;91.03
7157;BME280;3620;49.862;8.758;2022-07-30T02:17:49;99290.84;;;20.41;92.19
7157;BME280;3620;49.862;8.758;2022-07-30T02:20:20;99290.38;;;20.36;92.62
7157;BME280;3620;49.862;8.758;2022-07-30T02:22:51;99293.22;;;20.44;92.35
7157;BME280;3620;49.862;8.758;2022-07-30T02:25:20;99293.75;;;20.38;93.01
7157;BME280;3620;49.862;8.758;2022-07-30T02:27:51;99291.88;;;20.29;93.54
7157;BME280;3620;49.862;8.758;2022-07-30T02:30:22;99299.53;;;20.23;94.33
7157;BME280;3620;49.862;8.758;2022-07-30T02:32:56;99301.13;;;20.14;95.24
7157;BME280;3620;49.862;8.758;2022-07-30T02:35:25;99298.94;;;20.19;95.14
7157;BME280;3620;49.862;8.758;2022-07-30T02:37:55;99298.44;;;20.25;94.81
7157;BME280;3620;49.862;8.758;2022-07-30T02:40:25;99298.97;;;20.08;95.92
7157;BME280;3620;49.862;8.758;2022-07-30T02:42:52;99305.03;;;20.10;96.09
7157;BME280;3620;49.862;8.758;2022-07-30T02:45:21;99300.91;;;20.17;95.71
7157;BME280;3620;49.862;8.758;2022-07-30T02:47:52;99306.47;;;20.14;95.81
7157;BME280;3620;49.862;8.758;2022-07-30T02:50:21;99302.34;;;20.21;95.55
7157;BME280;3620;49.862;8.758;2022-07-30T02:52:50;99313.03;;;20.21;95.67
7157;BME280;3620;49.862;8.758;2022-07-30T02:55:19;99310.47;;;20.20;95.51
7157;BME280;3620;49.862;8.758;2022-07-30T02:57:47;99309.22;;;20.35;94.08
7157;BME280;3620;49.862;8.758;2022-07-30T03:00:15;99312.53;;;20.27;94.72
7157;BME280;3620;49.862;8.758;2022-07-30T03:02:43;99313.00;;;20.32;94.14
7157;BME280;3620;49.862;8.758;2022-07-30T03:05:12;99317.72;;;20.29;94.03
7157;BME280;3620;49.862;8.758;2022-07-30T03:07:40;99315.91;;;20.29;94.33
7157;BME280;3620;49.862;8.758;2022-07-30T03:10:08;99314.47;;;20.25;94.46
7157;BME280;3620;49.862;8.758;2022-07-30T03:12:37;99310.84;;;20.26;94.24
7157;BME280;3620;49.862;8.758;2022-07-30T03:15:06;99318.38;;;20.21;94.39
7157;BME280;3620;49.862;8.758;2022-07-30T03:17:37;99324.22;;;20.15;94.72
7157;BME280;3620;49.862;8.758;2022-07-30T03:20:07;99321.41;;;20.17;94.61
7157;BME280;3620;49.862;8.758;2022-07-30T03:22:40;99329.66;;;20.25;94.17
7157;BME280;3620;49.862;8.758;2022-07-30T03:25:08;99326.88;;;20.26;93.38
7157;BME280;3620;49.862;8.758;2022-07-30T03:27:37;99330.50;;;20.25;92.02
7157;BME280;3620;49.862;8.758;2022-07-30T03:30:06;99338.91;;;20.21;91.27
7157;BME280;3620;49.862;8.758;2022-07-30T03:32:34;99344.97;;;20.12;90.73
7157;BME280;3620;49.862;8.758;2022-07-30T03:35:02;99352.03;;;20.13;89.88
7157;BME280;3620;49.862;8.758;2022-07-30T03:37:29;99352.16;;;20.00;90.22
7157;BME280;3620;49.862;8.758;2022-07-30T03:39:58;99351.34;;;20.00;90.44
7157;BME280;3620;49.862;8.758;2022-07-30T03:42:26;99346.25;;;19.97;91.06
7157;BME280;3620;49.862;8.758;2022-07-30T03:44:53;99342.00;;;19.94;91.23
7157;BME280;3620;49.862;8.758;2022-07-30T03:47:21;99343.22;;;19.90;91.01
7157;BME280;3620;49.862;8.758;2022-07-30T03:49:48;99343.38;;;19.89;91.39
7157;BME280;3620;49.862;8.758;2022-07-30T03:52:17;99339.88;;;19.77;92.13
7157;BME280;3620;49.862;8.758;2022-07-30T03:54:44;99341.31;;;19.81;91.65
7157;BME280;3620;49.862;8.758;2022-07-30T03:57:12;99343.00;;;19.93;91.09
7157;BME280;3620;49.862;8.758;2022-07-30T03:59:40;99341.75;;;19.97;90.53
7157;BME280;3620;49.862;8.758;2022-07-30T04:02:07;99345.38;;;19.96;90.36
7157;BME280;3620;49.862;8.758;2022-07-30T04:04:34;99344.88;;;20.02;90.05
7157;BME280;3620;49.862;8.758;2022-07-30T04:07:01;99343.44;;;19.98;90.11
7157;BME280;3620;49.862;8.758;2022-07-30T04:09:27;99345.38;;;19.96;90.24
7157;BME280;3620;49.862;8.758;2022-07-30T04:11:54;99350.22;;;20.02;89.86
7157;BME280;3620;49.862;8.758;2022-07-30T04:14:22;99349.72;;;20.08;90.07
7157;BME280;3620;49.862;8.758;2022-07-30T04:16:53;99352.78;;;20.04;90.52
7157;BME280;3620;49.862;8.758;2022-07-30T04:19:22;99354.84;;;20.00;90.70
7157;BME280;3620;49.862;8.758;2022-07-30T04:21:52;99347.69;;;20.01;91.03
7157;BME280;3620;49.862;8.758;2022-07-30T04:24:19;99354.84;;;20.00;91.24
7157;BME280;3620;49.862;8.758;2022-07-30T04:26:47;99354.63;;;19.92;91.41
7157;BME280;3620;49.862;8.758;2022-07-30T04:29:15;99359.22;;;20.01;90.86
7157;BME280;3620;49.862;8.758;2022-07-30T04:31:44;99355.31;;;20.05;90.73
7157;BME280;3620;49.862;8.758;2022-07-30T04:34:12;99365.16;;;20.05;90.89
7157;BME280;3620;49.862;8.758;2022-07-30T04:36:40;99373.63;;;20.10;91.07
7157;BME280;3620;49.862;8.758;2022-07-30T04:39:07;99369.16;;;20.10;91.10
7157;BME280;3620;49.862;8.758;2022-07-30T04:41:34;99364.44;;;20.03;91.29
7157;BME280;3620;49.862;8.758;2022-07-30T04:44:01;99371.84;;;19.99;92.18
7157;BME280;3620;49.862;8.758;2022-07-30T04:46:27;99369.91;;;20.01;92.08
7157;BME280;3620;49.862;8.758;2022-07-30T04:48:55;99379.63;;;19.91;92.85
7157;BME280;3620;49.862;8.758;2022-07-30T04:51:25;99376.25;;;19.78;93.29
7157;BME280;3620;49.862;8.758;2022-07-30T04:53:54;99376.00;;;19.92;92.62
7157;BME280;3620;49.862;8.758;2022-07-30T04:56:23;99389.56;;;20.00;92.45
7157;BME280;3620;49.862;8.758;2022-07-30T04:58:51;99380.81;;;19.98;92.48
7157;BME280;3620;49.862;8.758;2022-07-30T05:01:22;99389.81;;;19.97;92.95
7157;BME280;3620;49.862;8.758;2022-07-30T05:03:51;99396.84;;;19.98;92.42
7157;BME280;3620;49.862;8.758;2022-07-30T05:06:20;99390.41;;;20.01;92.83
7157;BME280;3620;49.862;8.758;2022-07-30T05:08:47;99390.03;;;20.05;92.70
7157;BME280;3620;49.862;8.758;2022-07-30T05:11:14;99394.88;;;20.11;92.42
7157;BME280;3620;49.862;8.758;2022-07-30T05:13:42;99397.31;;;20.14;92.43
7157;BME280;3620;49.862;8.758;2022-07-30T05:16:09;99405.56;;;20.22;92.27
7157;BME280;3620;49.862;8.758;2022-07-30T05:18:37;99402.41;;;20.17;92.80
7157;BME280;3620;49.862;8.758;2022-07-30T05:21:04;99403.75;;;20.12;93.91
7157;BME280;3620;49.862;8.758;2022-07-30T05:23:33;99404.47;;;20.14;93.97
7157;BME280;3620;49.862;8.758;2022-07-30T05:26:00;99405.31;;;20.25;93.37
7157;BME280;3620;49.862;8.758;2022-07-30T05:28:27;99405.81;;;20.30;94.41
7157;BME280;3620;49.862;8.758;2022-07-30T05:30:54;99402.84;;;20.33;94.19
7157;BME280;3620;49.862;8.758;2022-07-30T05:33:21;99410.44;;;20.28;93.91
7157;BME280;3620;49.862;8.758;2022-07-30T05:35:48;99405.81;;;20.19;94.46
7157;BME280;3620;49.862;8.758;2022-07-30T05:38:15;99405.53;;;20.33;93.57
7157;BME280;3620;49.862;8.758;2022-07-30T05:40:44;99403.81;;;20.43;92.82
7157;BME280;3620;49.862;8.758;2022-07-30T05:43:11;99407.25;;;20.34;92.37
7157;BME280;3620;49.862;8.758;2022-07-30T05:45:37;99401.19;;;20.32;92.32
7157;BME280;3620;49.862;8.758;2022-07-30T05:48:04;99405.63;;;20.43;91.45
7157;BME280;3620;49.862;8.758;2022-07-30T05:50:31;99399.66;;;20.51;91.22
7157;BME280;3620;49.862;8.758;2022-07-30T05:52:58;99404.16;;;20.50;90.86
7157;BME280;3620;49.862;8.758;2022-07-30T05:55:24;99412.03;;;20.52;89.93
7157;BME280;3620;49.862;8.758;2022-07-30T05:57:52;99415.94;;;20.48;89.80
7157;BME280;3620;49.862;8.758;2022-07-30T06:00:19;99413.97;;;20.50;89.50
7157;BME280;3620;49.862;8.758;2022-07-30T06:02:46;99410.34;;;20.51;88.39
7157;BME280;3620;49.862;8.758;2022-07-30T06:05:12;99418.56;;;20.59;88.71
7157;BME280;3620;49.862;8.758;2022-07-30T06:07:39;99412.44;;;20.68;87.82
7157;BME280;3620;49.862;8.758;2022-07-30T06:10:06;99413.34;;;20.78;87.29
7157;BME280;3620;49.862;8.758;2022-07-30T06:12:33;99413.13;;;20.81;86.14
7157;BME280;3620;49.862;8.758;2022-07-30T06:15:02;99418.91;;;20.65;87.21
7157;BME280;3620;49.862;8.758;2022-07-30T06:17:29;99415.31;;;20.76;86.91
7157;BME280;3620;49.862;8.758;2022-07-30T06:19:58;99413.66;;;20.95;85.11
7157;BME280;3620;49.862;8.758;2022-07-30T06:22:25;99418.88;;;20.97;84.92
7157;BME280;3620;49.862;8.758;2022-07-30T06:24:52;99420.91;;;21.04;83.57
7157;BME280;3620;49.862;8.758;2022-07-30T06:27:18;99418.59;;;21.11;81.43
7157;BME280;3620;49.862;8.758;2022-07-30T06:29:45;99429.22;;;21.22;81.17
7157;BME280;3620;49.862;8.758;2022-07-30T06:32:13;99424.19;;;21.29;81.85
7157;BME280;3620;49.862;8.758;2022-07-30T06:34:40;99430.16;;;21.42;80.98
7157;BME280;3620;49.862;8.758;2022-07-30T06:37:06;99428.31;;;21.42;80.88
7157;BME280;3620;49.862;8.758;2022-07-30T06:39:33;99435.63;;;21.40;80.23
7157;BME280;3620;49.862;8.758;2022-07-30T06:42:00;99430.03;;;21.23;79.79
7157;BME280;3620;49.862;8.758;2022-07-30T06:44:26;99427.03;;;21.37;79.34
7157;BME280;3620;49.862;8.758;2022-07-30T06:46:53;99428.84;;;21.36;79.33
7157;BME280;3620;49.862;8.758;2022-07-30T06:49:21;99426.63;;;21.41;79.01
7157;BME280;3620;49.862;8.758;2022-07-30T06:51:48;99434.09;;;21.38;78.78
7157;BME280;3620;49.862;8.758;2022-07-30T06:54:15;99440.34;;;21.48;78.28
7157;BME280;3620;49.862;8.758;2022-07-30T06:56:42;99436.25;;;21.53;77.07
7157;BME280;3620;49.862;8.758;2022-07-30T06:59:09;99436.22;;;21.64;76.72
7157;BME280;3620;49.862;8.758;2022-07-30T07:01:35;99435.22;;;21.65;76.28
7157;BME280;3620;49.862;8.758;2022-07-30T07:04:02;99437.09;;;21.74;75.95
7157;BME280;3620;49.862;8.758;2022-07-30T07:06:30;99440.47;;;21.76;75.13
7157;BME280;3620;49.862;8.758;2022-07-30T07:08:57;99438.78;;;21.75;73.31
7157;BME280;3620;49.862;8.758;2022-07-30T07:11:24;99445.56;;;21.79;72.92
7157;BME280;3620;49.862;8.758;2022-07-30T07:13:51;99442.03;;;21.79;72.63
7157;BME280;3620;49.862;8.758;2022-07-30T07:16:17;99437.47;;;21.91;70.92
7157;BME280;3620;49.862;8.758;2022-07-30T07:18:49;99438.34;;;22.01;70.90
7157;BME280;3620;49.862;8.758;2022-07-30T07:21:16;99441.19;;;22.09;68.98
7157;BME280;3620;49.862;8.758;2022-07-30T07:23:44;99442.16;;;22.08;69.17
7157;BME280;3620;49.862;8.758;2022-07-30T07:26:13;99439.06;;;22.12;68.26
7157;BME280;3620;49.862;8.758;2022-07-30T07:28:39;99434.41;;;22.14;67.69
7157;BME280;3620;49.862;8.758;2022-07-30T07:31:06;99442.88;;;22.10;67.15
7157;BME280;3620;49.862;8.758;2022-07-30T07:33:33;99443.03;;;22.08;67.71
7157;BME280;3620;49.862;8.758;2022-07-30T07:36:00;99438.66;;;22.17;67.84
7157;BME280;3620;49.862;8.758;2022-07-30T07:38:26;99436.69;;;22.19;65.22
7157;BME280;3620;49.862;8.758;2022-07-30T07:40:54;99433.88;;;22.30;65.61
7157;BME280;3620;49.862;8.758;2022-07-30T07:43:21;99438.44;;;22.39;64.86
7157;BME280;3620;49.862;8.758;2022-07-30T07:45:50;99437.44;;;22.30;65.60
7157;BME280;3620;49.862;8.758;2022-07-30T07:48:17;99441.53;;;22.44;64.11
7157;BME280;3620;49.862;8.758;2022-07-30T07:50:44;99446.34;;;22.50;63.75
7157;BME280;3620;49.862;8.758;2022-07-30T07:53:10;99444.34;;;22.42;63.97
7157;BME280;3620;49.862;8.758;2022-07-30T07:55:38;99444.34;;;22.42;63.76
7157;BME280;3620;49.862;8.758;2022-07-30T07:58:06;99448.28;;;22.38;63.90
7157;BME280;3620;49.862;8.758;2022-07-30T08:00:35;99457.22;;;22.58;63.03
7157;BME280;3620;49.862;8.758;2022-07-30T08:03:02;99448.19;;;22.59;63.19
7157;BME280;3620;49.862;8.758;2022-07-30T08:05:29;99444.84;;;22.67;62.42
7157;BME280;3620;49.862;8.758;2022-07-30T08:07:56;99440.31;;;22.86;62.27
7157;BME280;3620;49.862;8.758;2022-07-30T08:10:22;99440.19;;;22.97;62.07
7157;BME280;3620;49.862;8.758;2022-07-30T08:12:49;99450.50;;;23.02;61.13
7157;BME280;3620;49.862;8.758;2022-07-30T08:15:17;99445.53;;;22.97;59.78
7157;BME280;3620;49.862;8.758;2022-07-30T08:17:45;99444.38;;;23.09;60.72
7157;BME280;3620;49.862;8.758;2022-07-30T08:20:13;99452.75;;;23.06;58.69
7157;BME280;3620;49.862;8.758;2022-07-30T08:22:40;99452.44;;;23.09;59.16
7157;BME280;3620;49.862;8.758;2022-07-30T08:25:08;99452.59;;;23.17;59.48
7157;BME280;3620;49.862;8.758;2022-07-30T08:27:35;99453.28;;;23.19;60.02
7157;BME280;3620;49.862;8.758;2022-07-30T08:30:03;99451.41;;;23.29;59.93
7157;BME280;3620;49.862;8.758;2022-07-30T08:32:31;99449.19;;;23.35;59.58
7157;BME280;3620;49.862;8.758;2022-07-30T08:34:58;99450.00;;;23.45;58.19
7157;BME280;3620;49.862;8.758;2022-07-30T08:37:24;99449.53;;;23.59;58.03
7157;BME280;3620;49.862;8.758;2022-07-30T08:39:51;99448.56;;;23.60;57.57
7157;BME280;3620;49.862;8.758;2022-07-30T08:42:18;99448.66;;;23.68;56.90
7157;BME280;3620;49.862;8.758;2022-07-30T08:44:45;99456.53;;;23.79;55.90
7157;BME280;3620;49.862;8.758;2022-07-30T08:47:15;99454.13;;;23.85;55.91
7157;BME280;3620;49.862;8.758;2022-07-30T08:49:44;99457.75;;;23.94;56.61
7157;BME280;3620;49.862;8.758;2022-07-30T08:52:11;99456.09;;;23.83;56.18
7157;BME280;3620;49.862;8.758;2022-07-30T08:54:39;99455.63;;;23.97;54.07
7157;BME280;3620;49.862;8.758;2022-07-30T08:57:06;99460.75;;;23.91;54.10
7157;BME280;3620;49.862;8.758;2022-07-30T08:59:32;99457.06;;;23.92;54.82
7157;BME280;3620;49.862;8.758;2022-07-30T09:02:00;99457.00;;;24.01;55.13
7157;BME280;3620;49.862;8.758;2022-07-30T09:04:27;99454.47;;;24.00;55.57
7157;BME280;3620;49.862;8.758;2022-07-30T09:06:55;99459.19;;;23.88;54.95
7157;BME280;3620;49.862;8.758;2022-07-30T09:09:21;99454.13;;;23.76;56.00
7157;BME280;3620;49.862;8.758;2022-07-30T09:11:48;99456.97;;;23.84;56.18
7157;BME280;3620;49.862;8.758;2022-07-30T09:14:15;99463.81;;;23.96;55.56
7157;BME280;3620;49.862;8.758;2022-07-30T09:16:42;99469.06;;;23.97;55.71
7157;BME280;3620;49.862;8.758;2022-07-30T09:19:12;99459.59;;;23.93;55.66
7157;BME280;3620;49.862;8.758;2022-07-30T09:21:38;99463.38;;;24.10;56.13
7157;BME280;3620;49.862;8.758;2022-07-30T09:24:09;99474.91;;;24.20;55.93
7157;BME280;3620;49.862;8.758;2022-07-30T09:26:53;99471.22;;;24.21;55.61
7157;BME280;3620;49.862;8.758;2022-07-30T09:29:22;99475.44;;;24.33;54.80
7157;BME280;3620;49.862;8.758;2022-07-30T09:31:54;99476.84;;;24.28;55.09
7157;BME280;3620;49.862;8.758;2022-07-30T09:34:25;99470.41;;;24.38;53.94
7157;BME280;3620;49.862;8.758;2022-07-30T09:36:53;99461.03;;;24.42;53.44
7157;BME280;3620;49.862;8.758;2022-07-30T09:39:33;99459.22;;;24.43;53.92
7157;BME280;3620;49.862;8.758;2022-07-30T09:42:01;99459.66;;;24.38;51.34
7157;BME280;3620;49.862;8.758;2022-07-30T09:44:29;99465.91;;;24.56;51.09
7157;BME280;3620;49.862;8.758;2022-07-30T09:46:56;99458.94;;;24.63;50.43
7157;BME280;3620;49.862;8.758;2022-07-30T09:49:25;99457.56;;;24.59;50.56
7157;BME280;3620;49.862;8.758;2022-07-30T09:51:53;99461.31;;;24.66;49.54
7157;BME280;3620;49.862;8.758;2022-07-30T09:54:20;99455.09;;;24.66;51.53
7157;BME280;3620;49.862;8.758;2022-07-30T09:57:03;99470.09;;;24.68;51.67
7157;BME280;3620;49.862;8.758;2022-07-30T09:59:32;99466.28;;;24.89;51.66
7157;BME280;3620;49.862;8.758;2022-07-30T10:01:59;99456.19;;;24.73;51.68
7157;BME280;3620;49.862;8.758;2022-07-30T10:04:27;99464.13;;;24.92;50.78
7157;BME280;3620;49.862;8.758;2022-07-30T10:06:55;99448.03;;;25.00;49.52
7157;BME280;3620;49.862;8.758;2022-07-30T10:09:26;99456.66;;;25.04;48.54
7157;BME280;3620;49.862;8.758;2022-07-30T10:11:57;99456.72;;;25.12;47.93
7157;BME280;3620;49.862;8.758;2022-07-30T10:14:28;99457.09;;;25.17;47.66
7157;BME280;3620;49.862;8.758;2022-07-30T10:16:55;99449.44;;;25.30;47.27
7157;BME280;3620;49.862;8.758;2022-07-30T10:19:23;99449.66;;;25.36;46.50
7157;BME280;3620;49.862;8.758;2022-07-30T10:21:50;99448.19;;;25.42;44.21
7157;BME280;3620;49.862;8.758;2022-07-30T10:24:21;99457.00;;;25.44;44.54
7157;BME280;3620;49.862;8.758;2022-07-30T10:26:48;99439.97;;;25.43;45.05
7157;BME280;3620;49.862;8.758;2022-07-30T10:29:18;99433.47;;;25.54;45.04
7157;BME280;3620;49.862;8.758;2022-07-30T10:31:45;99439.66;;;25.72;44.59
7157;BME280;3620;49.862;8.758;2022-07-30T10:34:13;99436.28;;;25.78;44.40
7157;BME280;3620;49.862;8.758;2022-07-30T10:36:44;99443.75;;;25.84;44.26
7157;BME280;3620;49.862;8.758;2022-07-30T10:39:15;99442.56;;;26.12;44.14
7157;BME280;3620;49.862;8.758;2022-07-30T10:41:46;99437.22;;;26.29;44.42
7157;BME280;3620;49.862;8.758;2022-07-30T10:44:43;99436.38;;;26.28;44.02
7157;BME280;3620;49.862;8.758;2022-07-30T10:47:14;99428.25;;;26.20;44.45
7157;BME280;3620;49.862;8.758;2022-07-30T10:50:04;99437.75;;;26.32;43.47
7157;BME280;3620;49.862;8.758;2022-07-30T10:52:45;99433.69;;;26.28;40.99
7157;BME280;3620;49.862;8.758;2022-07-30T10:55:15;99429.97;;;26.29;41.02
7157;BME280;3620;49.862;8.758;2022-07-30T10:58:03;99432.72;;;26.03;42.16
7157;BME280;3620;49.862;8.758;2022-07-30T11:00:32;99428.00;;;26.05;41.81
7157;BME280;3620;49.862;8.758;2022-07-30T11:03:19;99435.91;;;25.99;42.18
7157;BME280;3620;49.862;8.758;2022-07-30T11:05:48;99426.66;;;26.01;41.66
7157;BME280;3620;49.862;8.758;2022-07-30T11:08:29;99430.06;;;26.11;40.72
7157;BME280;3620;49.862;8.758;2022-07-30T11:10:57;99413.25;;;26.17;41.27
7157;BME280;3620;49.862;8.758;2022-07-30T11:13:50;99425.06;;;26.25;39.80
7157;BME280;3620;49.862;8.758;2022-07-30T11:16:19;99418.31;;;26.21;39.26
7157;BME280;3620;49.862;8.758;2022-07-30T11:19:07;99417.25;;;26.13;38.71
7157;BME280;3620;49.862;8.758;2022-07-30T11:21:36;99418.84;;;26.24;37.73
7157;BME280;3620;49.862;8.758;2022-07-30T11:24:04;99425.41;;;26.30;37.53
7157;BME280;3620;49.862;8.758;2022-07-30T11:26:50;99426.63;;;26.35;39.33
7157;BME280;3620;49.862;8.758;2022-07-30T11:29:37;99420.69;;;26.32;39.42
7157;BME280;3620;49.862;8.758;2022-07-30T11:32:28;99420.88;;;26.38;38.96
7157;BME280;3620;49.862;8.758;2022-07-30T11:35:20;99421.41;;;26.42;39.40
7157;BME280;3620;49.862;8.758;2022-07-30T11:37:59;99419.72;;;26.41;39.23
7157;BME280;3620;49.862;8.758;2022-07-30T11:40:26;99409.78;;;26.49;39.13
7157;BME280;3620;49.862;8.758;2022-07-30T11:43:13;99411.63;;;26.41;38.76
7157;BME280;3620;49.862;8.758;2022-07-30T11:45:40;99412.81;;;26.46;39.16
7157;BME280;3620;49.862;8.758;2022-07-30T11:48:13;99411.66;;;26.49;38.85
7157;BME280;3620;49.862;8.758;2022-07-30T11:50:41;99410.97;;;26.55;39.10
7157;BME280;3620;49.862;8.758;2022-07-30T11:53:12;99407.94;;;26.66;39.06
7157;BME280;3620;49.862;8.758;2022-07-30T11:55:40;99410.84;;;26.64;37.35
7157;BME280;3620;49.862;8.758;2022-07-30T11:58:09;99404.63;;;26.80;36.45
7157;BME280;3620;49.862;8.758;2022-07-30T12:00:37;99402.25;;;27.01;36.73
7157;BME280;3620;49.862;8.758;2022-07-30T12:03:10;99398.88;;;27.15;38.79
7157;BME280;3620;49.862;8.758;2022-07-30T12:05:38;99402.94;;;26.95;38.01
7157;BME280;3620;49.862;8.758;2022-07-30T12:08:05;99399.69;;;26.67;39.06
7157;BME280;3620;49.862;8.758;2022-07-30T12:10:32;99411.00;;;26.71;38.46
7157;BME280;3620;49.862;8.758;2022-07-30T12:13:08;99397.81;;;26.68;38.19
7157;BME280;3620;49.862;8.758;2022-07-30T12:15:37;99405.63;;;26.87;38.75
7157;BME280;3620;49.862;8.758;2022-07-30T12:18:04;99394.16;;;26.93;36.23
7157;BME280;3620;49.862;8.758;2022-07-30T12:20:33;99389.41;;;27.03;37.45
7157;BME280;3620;49.862;8.758;2022-07-30T12:23:00;99395.50;;;26.97;36.51
7157;BME280;3620;49.862;8.758;2022-07-30T12:25:28;99395.34;;;27.07;37.29
7157;BME280;3620;49.862;8.758;2022-07-30T12:27:54;99389.25;;;27.13;36.95
7157;BME280;3620;49.862;8.758;2022-07-30T12:30:21;99399.84;;;27.22;37.62
7157;BME280;3620;49.862;8.758;2022-07-30T12:32:48;99407.81;;;27.24;36.78
7157;BME280;3620;49.862;8.758;2022-07-30T12:35:18;99393.78;;;27.28;36.18
7157;BME280;3620;49.862;8.758;2022-07-30T12:38:01;99401.88;;;27.20;34.92
7157;BME280;3620;49.862;8.758;2022-07-30T12:40:29;99398.72;;;26.93;35.04
7157;BME280;3620;49.862;8.758;2022-07-30T12:42:56;99395.50;;;26.97;35.98
7157;BME280;3620;49.862;8.758;2022-07-30T12:45:28;99393.81;;;26.96;35.54
7157;BME280;3620;49.862;8.758;2022-07-30T12:47:55;99388.06;;;26.99;36.28
7157;BME280;3620;49.862;8.758;2022-07-30T12:50:22;99388.75;;;27.01;36.75
7157;BME280;3620;49.862;8.758;2022-07-30T12:52:50;99385.88;;;26.95;36.33
7157;BME280;3620;49.862;8.758;2022-07-30T12:55:27;99385.72;;;27.04;36.61
7157;BME280;3620;49.862;8.758;2022-07-30T12:57:57;99391.09;;;26.96;35.52
7157;BME280;3620;49.862;8.758;2022-07-30T13:00:26;99382.34;;;27.02;34.98
7157;BME280;3620;49.862;8.758;2022-07-30T13:02:53;99375.22;;;27.09;34.96
7157;BME280;3620;49.862;8.758;2022-07-30T13:05:40;99379.78;;;27.17;34.54
7157;BME280;3620;49.862;8.758;2022-07-30T13:08:07;99380.28;;;27.20;34.21
7157;BME280;3620;49.862;8.758;2022-07-30T13:10:35;99371.16;;;27.21;33.58
7157;BME280;3620;49.862;8.758;2022-07-30T13:13:02;99364.41;;;27.25;33.85
7157;BME280;3620;49.862;8.758;2022-07-30T13:15:29;99370.13;;;27.30;34.46
7157;BME280;3620;49.862;8.758;2022-07-30T13:17:55;99380.59;;;27.33;34.03
7157;BME280;3620;49.862;8.758;2022-07-30T13:20:22;99375.53;;;27.30;34.22
7157;BME280;3620;49.862;8.758;2022-07-30T13:22:49;99366.41;;;27.31;33.83
7157;BME280;3620;49.862;8.758;2022-07-30T13:25:16;99370.13;;;27.30;34.14
7157;BME280;3620;49.862;8.758;2022-07-30T13:27:44;99371.19;;;27.37;34.25
7157;BME280;3620;49.862;8.758;2022-07-30T13:30:11;99377.91;;;27.41;33.77
7157;BME280;3620;49.862;8.758;2022-07-30T13:32:38;99376.69;;;27.52;33.17
7157;BME280;3620;49.862;8.758;2022-07-30T13:35:05;99378.53;;;27.51;33.44